createdAt,value
2022-09-15T00:01:11.478Z,97254.06
2022-09-15T00:03:38.913Z,97252.06
2022-09-15T00:06:05.981Z,97243.84
2022-09-15T00:08:32.827Z,97258.63
2022-09-15T00:11:10.096Z,97258.78
2022-09-15T00:13:38.969Z,97244.00
2022-09-15T00:16:06.637Z,97243.53
2022-09-15T00:18:34.227Z,97229.38
2022-09-15T00:21:05.408Z,97232.47
2022-09-15T00:23:32.068Z,97236.03
2022-09-15T00:25:58.920Z,97235.59
2022-09-15T00:28:25.571Z,97229.53
2022-09-15T00:30:54.345Z,97223.47
2022-09-15T00:33:22.663Z,97220.88
2022-09-15T00:35:51.479Z,97228.91
2022-09-15T00:38:18.876Z,97227.66
2022-09-15T00:40:48.303Z,97222.00
2022-09-15T00:43:16.874Z,97224.50
2022-09-15T00:45:43.556Z,97223.22
2022-09-15T00:48:15.916Z,97220.75
2022-09-15T00:50:46.726Z,97220.97
2022-09-15T00:53:14.582Z,97229.72
2022-09-15T00:55:45.707Z,97248.91
2022-09-15T00:58:17.900Z,97240.06
2022-09-15T01:00:51.399Z,97236.31
2022-09-15T01:03:18.237Z,97235.03
2022-09-15T01:05:51.454Z,97239.09
2022-09-15T01:08:27.977Z,97237.22
2022-09-15T01:10:54.603Z,97234.50
2022-09-15T01:13:21.205Z,97225.22
2022-09-15T01:18:59.072Z,97217.63
2022-09-15T01:21:48.680Z,97207.22
2022-09-15T01:24:33.692Z,97214.69
2022-09-15T01:27:41.569Z,97216.38
2022-09-15T01:30:13.256Z,97216.25
2022-09-15T01:33:01.463Z,97214.88
2022-09-15T01:35:42.448Z,97230.50
2022-09-15T01:38:22.516Z,97237.38
2022-09-15T01:41:15.616Z,97225.06
2022-09-15T01:44:07.148Z,97224.59
2022-09-15T01:46:39.390Z,97226.25
2022-09-15T01:49:11.201Z,97224.97
2022-09-15T01:51:39.883Z,97222.97
2022-09-15T01:54:07.671Z,97230.22
2022-09-15T01:56:37.005Z,97241.97
2022-09-15T01:59:03.785Z,97238.19
2022-09-15T02:01:49.749Z,97246.84
2022-09-15T02:04:51.542Z,97254.22
2022-09-15T02:07:20.591Z,97262.53
2022-09-15T02:10:01.829Z,97266.44
2022-09-15T02:12:57.668Z,97266.22
2022-09-15T02:15:36.910Z,97263.72
2022-09-15T02:18:08.495Z,97250.91
2022-09-15T02:20:52.083Z,97273.94
2022-09-15T02:23:28.727Z,97255.44
2022-09-15T02:26:05.159Z,97242.03
2022-09-15T02:28:35.759Z,97242.50
2022-09-15T02:31:05.229Z,97240.13
2022-09-15T02:33:37.109Z,97238.34
2022-09-15T02:36:04.982Z,97238.47
2022-09-15T02:38:37.045Z,97226.63
2022-09-15T02:41:03.820Z,97229.69
2022-09-15T02:43:31.105Z,97230.63
2022-09-15T02:45:57.916Z,97231.47
2022-09-15T02:48:25.405Z,97233.97
2022-09-15T02:50:52.023Z,97241.91
2022-09-15T02:53:18.601Z,97238.47
2022-09-15T02:55:45.158Z,97232.41
2022-09-15T02:58:11.712Z,97239.19
2022-09-15T03:00:39.200Z,97234.88
2022-09-15T03:03:05.766Z,97245.34
2022-09-15T03:05:32.385Z,97237.41
2022-09-15T03:07:58.973Z,97238.22
2022-09-15T03:10:26.363Z,97225.28
2022-09-15T03:12:54.509Z,97225.28
2022-09-15T03:15:23.848Z,97229.69
2022-09-15T03:17:51.111Z,97227.31
2022-09-15T03:20:23.117Z,97228.88
2022-09-15T03:22:50.136Z,97228.25
2022-09-15T03:25:17.593Z,97227.91
2022-09-15T03:27:44.400Z,97223.53
2022-09-15T03:30:12.307Z,97226.13
2022-09-15T03:32:38.881Z,97226.13
2022-09-15T03:35:06.868Z,97230.41
2022-09-15T03:37:34.002Z,97226.84
2022-09-15T03:40:00.634Z,97227.78
2022-09-15T03:42:27.235Z,97221.63
2022-09-15T03:44:53.851Z,97205.03
2022-09-15T03:47:20.437Z,97205.72
2022-09-15T03:49:46.966Z,97216.91
2022-09-15T03:52:13.893Z,97214.16
2022-09-15T03:54:40.733Z,97212.38
2022-09-15T03:57:07.287Z,97214.16
2022-09-15T03:59:34.007Z,97220.44
2022-09-15T04:02:00.638Z,97216.28
2022-09-15T04:04:27.504Z,97229.22
2022-09-15T04:06:54.059Z,97226.72
2022-09-15T04:09:21.565Z,97220.69
2022-09-15T04:11:48.178Z,97219.34
2022-09-15T04:14:14.868Z,97220.31
2022-09-15T04:16:41.538Z,97215.94
2022-09-15T04:19:08.256Z,97220.31
2022-09-15T04:21:34.811Z,97224.69
2022-09-15T04:24:01.595Z,97221.28
2022-09-15T04:26:33.082Z,97213.44
2022-09-15T04:29:04.143Z,97207.63
2022-09-15T04:31:32.212Z,97214.63
2022-09-15T04:33:59.386Z,97207.88
2022-09-15T04:36:28.370Z,97208.56
2022-09-15T04:38:55.960Z,97219.94
2022-09-15T04:41:23.187Z,97227.06
2022-09-15T04:43:50.347Z,97210.56
2022-09-15T04:46:18.472Z,97213.78
2022-09-15T04:48:46.326Z,97212.59
2022-09-15T04:51:19.294Z,97214.00
2022-09-15T04:53:46.426Z,97205.13
2022-09-15T04:56:18.607Z,97212.97
2022-09-15T04:59:02.434Z,97211.69
2022-09-15T05:01:32.499Z,97216.91
2022-09-15T05:04:01.912Z,97221.16
2022-09-15T05:06:28.570Z,97217.25
2022-09-15T05:08:57.343Z,97221.28
2022-09-15T05:11:25.563Z,97225.78
2022-09-15T05:13:52.878Z,97224.47
2022-09-15T05:16:22.274Z,97216.28
2022-09-15T05:18:50.496Z,97219.25
2022-09-15T05:21:19.198Z,97218.09
2022-09-15T05:23:46.495Z,97214.66
2022-09-15T05:26:15.851Z,97218.31
2022-09-15T05:28:42.673Z,97214.75
2022-09-15T05:31:11.438Z,97224.97
2022-09-15T05:33:38.544Z,97231.66
2022-09-15T05:36:07.316Z,97228.19
2022-09-15T05:38:34.344Z,97236.16
2022-09-15T05:41:10.331Z,97233.53
2022-09-15T05:43:38.501Z,97235.69
2022-09-15T05:46:06.845Z,97238.78
2022-09-15T05:48:34.346Z,97234.47
2022-09-15T05:51:01.364Z,97244.69
2022-09-15T05:53:28.646Z,97250.38
2022-09-15T05:55:56.647Z,97261.66
2022-09-15T05:58:23.453Z,97265.94
2022-09-15T06:00:50.119Z,97272.59
2022-09-15T06:03:17.131Z,97269.75
2022-09-15T06:05:43.890Z,97272.94
2022-09-15T06:08:11.006Z,97272.44
2022-09-15T06:10:37.544Z,97270.69
2022-09-15T06:13:04.185Z,97277.22
2022-09-15T06:15:31.568Z,97279.59
2022-09-15T06:17:58.228Z,97282.06
2022-09-15T06:20:25.578Z,97276.97
2022-09-15T06:22:54.007Z,97291.69
2022-09-15T06:25:30.655Z,97290.34
2022-09-15T06:27:57.228Z,97288.91
2022-09-15T06:30:23.760Z,97296.25
2022-09-15T06:32:50.402Z,97306.13
2022-09-15T06:35:17.355Z,97314.56
2022-09-15T06:37:43.892Z,97315.59
2022-09-15T06:40:10.971Z,97310.81
2022-09-15T06:42:37.598Z,97308.78
2022-09-15T06:45:04.535Z,97307.31
2022-09-15T06:47:34.036Z,97314.75
2022-09-15T06:50:01.263Z,97312.06
2022-09-15T06:52:28.266Z,97311.56
2022-09-15T06:54:54.960Z,97318.78
2022-09-15T06:57:21.581Z,97316.34
2022-09-15T06:59:48.126Z,97314.47
2022-09-15T07:02:14.783Z,97308.66
2022-09-15T07:04:41.412Z,97309.22
2022-09-15T07:07:08.114Z,97312.50
2022-09-15T07:09:34.652Z,97315.44
2022-09-15T07:12:01.488Z,97314.66
2022-09-15T07:14:29.931Z,97319.25
2022-09-15T07:16:56.555Z,97319.44
2022-09-15T07:19:23.396Z,97325.75
2022-09-15T07:21:50.417Z,97330.03
2022-09-15T07:24:17.015Z,97329.66
2022-09-15T07:26:43.619Z,97336.81
2022-09-15T07:29:10.174Z,97337.81
2022-09-15T07:31:38.850Z,97354.84
2022-09-15T07:34:07.018Z,97355.41
2022-09-15T07:36:33.971Z,97349.47
2022-09-15T07:39:00.525Z,97347.94
2022-09-15T07:41:29.347Z,97351.00
2022-09-15T07:43:58.343Z,97354.47
2022-09-15T07:46:26.578Z,97355.44
2022-09-15T07:48:57.542Z,97359.72
2022-09-15T07:51:25.114Z,97362.91
2022-09-15T07:53:52.926Z,97369.78
2022-09-15T07:56:20.567Z,97370.34
2022-09-15T07:58:48.201Z,97374.53
2022-09-15T08:01:15.943Z,97372.84
2022-09-15T08:03:46.301Z,97373.13
2022-09-15T08:06:13.725Z,97378.22
2022-09-15T08:08:41.052Z,97375.31
2022-09-15T08:11:09.788Z,97363.75
2022-09-15T08:13:37.072Z,97373.59
2022-09-15T08:16:08.249Z,97373.72
2022-09-15T08:18:35.617Z,97383.66
2022-09-15T08:21:13.699Z,97381.16
2022-09-15T08:23:41.118Z,97383.09
2022-09-15T08:26:14.393Z,97382.78
2022-09-15T08:28:42.313Z,97379.19
2022-09-15T08:31:11.508Z,97379.41
2022-09-15T08:33:43.137Z,97376.13
2022-09-15T08:36:11.546Z,97366.31
2022-09-15T08:38:44.141Z,97365.53
2022-09-15T08:41:27.796Z,97361.88
2022-09-15T08:44:22.474Z,97366.44
2022-09-15T08:46:58.029Z,97360.94
2022-09-15T08:49:51.117Z,97369.91
2022-09-15T08:52:26.906Z,97378.19
2022-09-15T08:54:58.125Z,97371.25
2022-09-15T08:57:26.133Z,97373.78
2022-09-15T08:59:57.185Z,97372.38
2022-09-15T09:02:49.932Z,97368.09
2022-09-15T09:05:39.779Z,97352.22
2022-09-15T09:08:18.557Z,97360.53
2022-09-15T09:11:02.193Z,97358.72
2022-09-15T09:13:44.495Z,97347.25
2022-09-15T09:16:39.926Z,97355.28
2022-09-15T09:19:38.165Z,97350.03
2022-09-15T09:22:23.189Z,97354.47
2022-09-15T09:24:56.661Z,97358.03
2022-09-15T09:27:29.986Z,97342.84
2022-09-15T09:30:14.265Z,97344.22
2022-09-15T09:33:10.714Z,97341.03
2022-09-15T09:35:43.471Z,97342.81
2022-09-15T09:38:11.130Z,97340.13
2022-09-15T09:40:41.488Z,97337.66
2022-09-15T09:43:08.936Z,97346.72
2022-09-15T09:45:35.641Z,97340.50
2022-09-15T09:48:10.066Z,97326.81
2022-09-15T09:50:39.610Z,97322.81
2022-09-15T09:53:28.586Z,97317.13
2022-09-15T09:56:14.613Z,97318.28
2022-09-15T09:58:41.287Z,97312.44
2022-09-15T10:01:14.402Z,97305.94
2022-09-15T10:03:43.294Z,97301.16
2022-09-15T10:06:15.241Z,97292.69
2022-09-15T10:09:05.790Z,97292.47
2022-09-15T10:11:52.819Z,97289.44
2022-09-15T10:14:41.362Z,97287.53
2022-09-15T10:17:20.262Z,97288.47
2022-09-15T10:19:54.206Z,97280.31
2022-09-15T10:22:35.675Z,97280.59
2022-09-15T10:25:35.692Z,97281.94
2022-09-15T10:28:14.799Z,97279.19
2022-09-15T10:30:57.751Z,97280.03
2022-09-15T10:33:30.745Z,97279.59
2022-09-15T10:36:03.712Z,97272.88
2022-09-15T10:38:38.954Z,97265.16
2022-09-15T10:41:28.508Z,97265.16
2022-09-15T10:44:04.477Z,97258.69
2022-09-15T10:46:44.136Z,97259.94
2022-09-15T10:49:29.539Z,97261.81
2022-09-15T10:52:02.164Z,97260.78
2022-09-15T10:54:47.958Z,97264.72
2022-09-15T10:57:53.446Z,97263.75
2022-09-15T11:00:25.807Z,97268.56
2022-09-15T11:03:10.965Z,97269.88
2022-09-15T11:05:58.631Z,97269.97
2022-09-15T11:08:34.128Z,97261.84
2022-09-15T11:11:34.412Z,97256.97
2022-09-15T11:14:25.055Z,97255.41
2022-09-15T11:17:19.450Z,97254.09
2022-09-15T11:20:10.411Z,97264.03
2022-09-15T11:22:56.902Z,97264.50
2022-09-15T11:25:29.216Z,97252.78
2022-09-15T11:28:02.460Z,97253.34
2022-09-15T11:30:39.394Z,97238.00
2022-09-15T11:33:33.101Z,97230.28
2022-09-15T11:36:18.115Z,97228.06
2022-09-15T11:38:59.697Z,97226.66
2022-09-15T11:41:31.183Z,97223.84
2022-09-15T11:44:33.181Z,97229.50
2022-09-15T11:47:21.743Z,97225.19
2022-09-15T11:50:02.113Z,97207.16
2022-09-15T11:53:09.714Z,97204.38
2022-09-15T11:55:45.311Z,97199.84
2022-09-15T11:58:33.730Z,97204.69
2022-09-15T12:01:15.695Z,97217.19
2022-09-15T12:03:50.659Z,97202.75
2022-09-15T12:06:44.791Z,97191.06
2022-09-15T12:09:15.905Z,97185.31
2022-09-15T12:11:48.590Z,97184.94
2022-09-15T12:14:38.655Z,97171.66
2022-09-15T12:17:07.997Z,97165.31
2022-09-15T12:19:40.956Z,97172.75
2022-09-15T12:22:25.787Z,97169.97
2022-09-15T12:25:02.402Z,97165.72
2022-09-15T12:27:29.677Z,97165.88
2022-09-15T12:30:00.027Z,97165.38
2022-09-15T12:32:29.045Z,97158.31
2022-09-15T12:35:10.109Z,97160.88
2022-09-15T12:37:53.129Z,97159.50
2022-09-15T12:40:40.437Z,97156.13
2022-09-15T12:43:13.400Z,97154.19
2022-09-15T12:45:43.033Z,97154.50
2022-09-15T12:48:15.813Z,97154.13
2022-09-15T12:50:44.481Z,97153.44
2022-09-15T12:53:26.715Z,97150.97
2022-09-15T12:55:56.244Z,97149.97
2022-09-15T12:58:30.440Z,97148.03
2022-09-15T13:01:22.366Z,97150.56
2022-09-15T13:03:49.454Z,97153.72
2022-09-15T13:06:34.248Z,97146.22
2022-09-15T13:09:04.259Z,97158.44
2022-09-15T13:11:34.744Z,97148.69
2022-09-15T13:14:04.604Z,97140.66
2022-09-15T13:16:34.617Z,97144.34
2022-09-15T13:19:11.999Z,97157.66
2022-09-15T13:21:43.825Z,97155.66
2022-09-15T13:24:21.495Z,97157.53
2022-09-15T13:26:54.648Z,97166.31
2022-09-15T13:29:23.103Z,97159.97
2022-09-15T13:32:07.859Z,97165.47
2022-09-15T13:35:04.906Z,97160.38
2022-09-15T13:40:47.974Z,97159.97
2022-09-15T13:43:54.680Z,97148.47
2022-09-15T13:46:59.138Z,97149.47
2022-09-15T13:49:43.675Z,97148.16
2022-09-15T13:52:32.243Z,97138.34
2022-09-15T13:55:20.920Z,97133.00
2022-09-15T14:00:56.517Z,97147.81
2022-09-15T14:03:56.710Z,97138.03
2022-09-15T14:06:27.425Z,97138.72
2022-09-15T14:08:57.897Z,97130.47
2022-09-15T14:11:32.662Z,97134.69
2022-09-15T14:14:00.924Z,97126.44
2022-09-15T14:16:27.955Z,97135.28
2022-09-15T14:18:57.752Z,97131.97
2022-09-15T14:21:30.307Z,97134.50
2022-09-15T14:24:02.590Z,97123.84
2022-09-15T14:26:30.652Z,97141.69
2022-09-15T14:29:00.985Z,97124.84
2022-09-15T14:31:39.179Z,97117.41
2022-09-15T14:34:08.628Z,97119.06
2022-09-15T14:36:35.370Z,97114.91
2022-09-15T14:39:16.963Z,97128.44
2022-09-15T14:41:44.280Z,97122.34
2022-09-15T14:47:28.372Z,97128.69
2022-09-15T14:50:18.476Z,97131.44
2022-09-15T14:53:05.372Z,97135.19
2022-09-15T14:55:54.708Z,97126.47
2022-09-15T14:58:23.948Z,97127.31
2022-09-15T15:01:05.329Z,97126.47
2022-09-15T15:03:35.207Z,97125.16
2022-09-15T15:06:30.778Z,97128.72
2022-09-15T15:09:21.430Z,97129.59
2022-09-15T15:11:55.174Z,97134.84
2022-09-15T15:17:08.271Z,97147.97
2022-09-15T15:19:38.690Z,97145.06
2022-09-15T15:22:08.467Z,97146.41
2022-09-15T15:24:41.003Z,97147.81
2022-09-15T15:27:39.734Z,97150.50
2022-09-15T15:30:36.979Z,97157.06
2022-09-15T15:33:32.119Z,97155.97
2022-09-15T15:36:21.799Z,97153.34
2022-09-15T15:38:53.642Z,97154.97
2022-09-15T15:41:35.545Z,97147.66
2022-09-15T15:44:15.604Z,97157.44
2022-09-15T15:46:51.382Z,97157.53
2022-09-15T15:49:19.244Z,97160.81
2022-09-15T15:51:45.869Z,97172.69
2022-09-15T15:54:12.838Z,97173.09
2022-09-15T15:56:39.429Z,97178.09
2022-09-15T15:59:06.421Z,97175.47
2022-09-15T16:01:33.606Z,97170.88
2022-09-15T16:04:00.481Z,97179.31
2022-09-15T16:06:27.162Z,97172.09
2022-09-15T16:08:55.647Z,97165.94
2022-09-15T16:11:22.143Z,97171.97
2022-09-15T16:13:48.687Z,97164.84
2022-09-15T16:16:17.674Z,97164.25
2022-09-15T16:18:44.470Z,97164.25
2022-09-15T16:21:37.006Z,97177.72
2022-09-15T16:24:04.869Z,97182.50
2022-09-15T16:26:31.486Z,97186.91
2022-09-15T16:28:58.515Z,97190.16
2022-09-15T16:31:25.106Z,97193.47
2022-09-15T16:33:51.678Z,97194.94
2022-09-15T16:36:18.630Z,97200.16
2022-09-15T16:38:45.407Z,97202.06
2022-09-15T16:41:17.890Z,97198.97
2022-09-15T16:43:45.525Z,97211.13
2022-09-15T16:46:13.665Z,97213.75
2022-09-15T16:48:42.883Z,97215.78
2022-09-15T16:51:31.590Z,97215.19
2022-09-15T16:53:58.754Z,97222.81
2022-09-15T16:56:25.891Z,97226.16
2022-09-15T16:58:58.788Z,97238.50
2022-09-15T17:01:26.524Z,97244.09
2022-09-15T17:03:53.094Z,97246.00
2022-09-15T17:06:21.019Z,97249.56
2022-09-15T17:08:47.619Z,97253.25
2022-09-15T17:11:17.047Z,97269.38
2022-09-15T17:13:44.395Z,97262.00
2022-09-15T17:16:13.475Z,97266.97
2022-09-15T17:18:40.070Z,97273.50
2022-09-15T17:21:07.381Z,97271.84
2022-09-15T17:23:39.501Z,97266.97
2022-09-15T17:26:10.959Z,97261.16
2022-09-15T17:28:38.338Z,97267.66
2022-09-15T17:31:17.104Z,97266.44
2022-09-15T17:33:44.424Z,97268.91
2022-09-15T17:36:11.919Z,97263.81
2022-09-15T17:38:41.126Z,97264.31
2022-09-15T17:41:14.747Z,97268.16
2022-09-15T17:43:41.371Z,97264.34
2022-09-15T17:46:08.970Z,97274.91
2022-09-15T17:48:37.249Z,97275.63
2022-09-15T17:51:03.911Z,97293.28
2022-09-15T17:53:30.992Z,97297.66
2022-09-15T17:55:57.574Z,97306.19
2022-09-15T17:58:26.763Z,97317.59
2022-09-15T18:00:54.155Z,97325.19
2022-09-15T18:03:36.630Z,97327.78
2022-09-15T18:06:06.986Z,97320.84
2022-09-15T18:08:35.887Z,97329.88
2022-09-15T18:11:05.076Z,97322.84
2022-09-15T18:13:31.715Z,97314.22
2022-09-15T18:16:04.042Z,97314.09
2022-09-15T18:18:30.634Z,97316.72
2022-09-15T18:20:58.487Z,97306.69
2022-09-15T18:23:29.422Z,97313.50
2022-09-15T18:25:56.105Z,97320.34
2022-09-15T18:28:22.689Z,97312.53
2022-09-15T18:30:50.580Z,97305.91
2022-09-15T18:33:19.432Z,97314.22
2022-09-15T18:35:46.833Z,97328.06
2022-09-15T18:38:13.738Z,97321.09
2022-09-15T18:40:49.009Z,97323.69
2022-09-15T18:43:16.703Z,97321.59
2022-09-15T18:45:43.293Z,97318.63
2022-09-15T18:48:12.777Z,97320.94
2022-09-15T18:50:40.662Z,97300.25
2022-09-15T18:53:07.782Z,97291.13
2022-09-15T18:55:34.376Z,97287.63
2022-09-15T18:58:01.427Z,97294.00
2022-09-15T19:00:28.950Z,97296.13
2022-09-15T19:02:58.405Z,97300.00
2022-09-15T19:05:26.795Z,97311.47
2022-09-15T19:07:53.797Z,97304.06
2022-09-15T19:10:20.526Z,97308.06
2022-09-15T19:12:47.192Z,97312.53
2022-09-15T19:15:14.778Z,97311.91
2022-09-15T19:17:42.824Z,97310.19
2022-09-15T19:20:11.858Z,97306.75
2022-09-15T19:22:38.444Z,97306.88
2022-09-15T19:25:06.556Z,97299.78
2022-09-15T19:27:33.726Z,97286.75
2022-09-15T19:30:00.629Z,97286.88
2022-09-15T19:32:27.571Z,97288.63
2022-09-15T19:34:54.136Z,97287.44
2022-09-15T19:37:22.076Z,97294.50
2022-09-15T19:39:51.546Z,97293.25
2022-09-15T19:42:18.157Z,97308.16
2022-09-15T19:44:44.801Z,97312.84
2022-09-15T19:47:11.601Z,97319.09
2022-09-15T19:49:38.574Z,97322.84
2022-09-15T19:52:06.441Z,97321.63
2022-09-15T19:54:34.541Z,97335.34
2022-09-15T19:57:01.511Z,97340.34
2022-09-15T19:59:31.231Z,97346.78
2022-09-15T20:01:59.812Z,97351.03
2022-09-15T20:07:12.538Z,97369.47
2022-09-15T20:09:39.434Z,97390.28
2022-09-15T20:12:06.175Z,97390.06
2022-09-15T20:14:32.752Z,97400.91
2022-09-15T20:17:01.208Z,97403.25
2022-09-15T20:19:28.635Z,97401.28
2022-09-15T20:21:55.212Z,97400.44
2022-09-15T20:24:22.890Z,97405.31
2022-09-15T20:26:49.742Z,97403.44
2022-09-15T20:29:16.380Z,97401.06
2022-09-15T20:31:42.896Z,97401.69
2022-09-15T20:34:09.427Z,97395.31
2022-09-15T20:36:38.900Z,97405.94
2022-09-15T20:39:10.452Z,97407.28
2022-09-15T20:41:37.151Z,97415.31
2022-09-15T20:44:05.339Z,97416.03
2022-09-15T20:46:31.930Z,97415.31
2022-09-15T20:48:58.485Z,97428.31
2022-09-15T20:51:28.013Z,97429.91
2022-09-15T20:53:56.153Z,97429.91
2022-09-15T20:56:25.626Z,97431.56
2022-09-15T20:58:53.689Z,97433.31
2022-09-15T21:01:22.896Z,97430.06
2022-09-15T21:03:49.931Z,97433.41
2022-09-15T21:06:22.650Z,97432.59
2022-09-15T21:08:50.072Z,97432.16
2022-09-15T21:11:19.378Z,97432.88
2022-09-15T21:13:47.232Z,97430.00
2022-09-15T21:16:16.247Z,97432.28
2022-09-15T21:18:44.474Z,97438.41
2022-09-15T21:21:14.689Z,97436.56
2022-09-15T21:23:46.756Z,97436.44
2022-09-15T21:26:16.240Z,97433.03
2022-09-15T21:28:45.739Z,97435.31
2022-09-15T21:31:15.198Z,97441.56
2022-09-15T21:33:43.148Z,97443.78
2022-09-15T21:36:12.911Z,97439.09
2022-09-15T21:38:41.704Z,97452.81
2022-09-15T21:41:13.908Z,97450.53
2022-09-15T21:43:42.296Z,97459.94
2022-09-15T21:46:14.681Z,97467.22
2022-09-15T21:48:41.424Z,97475.13
2022-09-15T21:51:10.494Z,97474.28
2022-09-15T21:53:37.937Z,97476.56
2022-09-15T21:56:06.538Z,97484.91
2022-09-15T21:58:37.926Z,97481.56
2022-09-15T22:01:19.850Z,97470.53
2022-09-15T22:03:52.287Z,97473.06
2022-09-15T22:06:21.514Z,97487.19
2022-09-15T22:08:48.441Z,97495.22
2022-09-15T22:11:15.095Z,97499.69
2022-09-15T22:13:43.776Z,97496.66
2022-09-15T22:16:19.297Z,97495.00
2022-09-15T22:18:46.334Z,97499.09
2022-09-15T22:21:15.616Z,97494.06
2022-09-15T22:23:43.280Z,97494.91
2022-09-15T22:26:12.904Z,97499.69
2022-09-15T22:28:39.750Z,97501.53
2022-09-15T22:31:09.221Z,97510.28
2022-09-15T22:33:35.937Z,97515.09
2022-09-15T22:36:03.675Z,97521.97
2022-09-15T22:38:30.452Z,97522.53
2022-09-15T22:41:03.414Z,97520.84
2022-09-15T22:43:29.949Z,97513.44
2022-09-15T22:45:56.566Z,97523.44
2022-09-15T22:48:23.137Z,97521.69
2022-09-15T22:50:49.665Z,97520.84
2022-09-15T22:53:16.281Z,97518.22
2022-09-15T22:55:42.914Z,97521.78
2022-09-15T22:58:09.513Z,97528.41
2022-09-15T23:00:39.247Z,97519.00
2022-09-15T23:03:06.663Z,97522.97
2022-09-15T23:05:34.225Z,97527.22
2022-09-15T23:08:00.869Z,97535.81
2022-09-15T23:10:28.220Z,97542.69
2022-09-15T23:12:54.818Z,97549.38
2022-09-15T23:15:21.457Z,97551.16
2022-09-15T23:17:48.082Z,97553.84
2022-09-15T23:20:14.779Z,97559.06
2022-09-15T23:22:41.297Z,97555.25
2022-09-15T23:25:08.330Z,97551.53
2022-09-15T23:27:34.945Z,97556.66
2022-09-15T23:30:01.547Z,97568.16
2022-09-15T23:32:28.156Z,97567.25
2022-09-15T23:34:54.830Z,97563.34
2022-09-15T23:37:21.336Z,97561.41
2022-09-15T23:39:47.924Z,97569.09
2022-09-15T23:42:18.621Z,97551.38
2022-09-15T23:44:45.491Z,97560.03
2022-09-15T23:47:12.065Z,97564.28
2022-09-15T23:49:38.598Z,97574.69
2022-09-15T23:52:05.124Z,97570.25
2022-09-15T23:54:31.709Z,97565.78
2022-09-15T23:56:58.234Z,97566.72
2022-09-15T23:59:25.080Z,97552.91
